createdAt,value
2023-02-14T00:00:06.400Z,-.22
2023-02-14T00:00:37.427Z,-.22
2023-02-14T00:01:09.438Z,-.22
2023-02-14T00:01:41.520Z,-.22
2023-02-14T00:02:13.464Z,-.22
2023-02-14T00:02:45.318Z,-.22
2023-02-14T00:03:17.452Z,-.22
2023-02-14T00:03:49.598Z,-.27
2023-02-14T00:04:21.519Z,-.27
2023-02-14T00:04:53.307Z,-.27
2023-02-14T00:05:25.265Z,-.27
2023-02-14T00:05:57.264Z,-.27
2023-02-14T00:06:29.259Z,-.27
2023-02-14T00:07:01.261Z,-.27
2023-02-14T00:07:33.087Z,-.27
2023-02-14T00:08:05.253Z,-.27
2023-02-14T00:08:37.197Z,-.27
2023-02-14T00:09:09.082Z,-.27
2023-02-14T00:09:41.148Z,-.27
2023-02-14T00:10:13.189Z,-.27
2023-02-14T00:10:45.069Z,-.27
2023-02-14T00:11:17.745Z,-.27
2023-02-14T00:11:49.004Z,-.27
2023-02-14T00:12:21.122Z,-.27
2023-02-14T00:12:52.987Z,-.27
2023-02-14T00:13:24.867Z,-.27
2023-02-14T00:13:56.873Z,-.22
2023-02-14T00:14:28.925Z,-.22
2023-02-14T00:15:01.654Z,-.22
2023-02-14T00:15:32.853Z,-.22
2023-02-14T00:16:04.901Z,-.22
2023-02-14T00:16:36.860Z,-.22
2023-02-14T00:17:08.698Z,-.22
2023-02-14T00:17:40.834Z,-.22
2023-02-14T00:18:12.748Z,-.22
2023-02-14T00:18:44.723Z,-.22
2023-02-14T00:19:16.582Z,-.22
2023-02-14T00:19:48.594Z,-.22
2023-02-14T00:20:20.763Z,-.11
2023-02-14T00:20:52.616Z,-.11
2023-02-14T00:21:24.574Z,-.11
2023-02-14T00:21:56.612Z,-.11
2023-02-14T00:22:28.545Z,-.11
2023-02-14T00:23:01.122Z,-.11
2023-02-14T00:23:32.453Z,-.11
2023-02-14T00:24:04.459Z,-.11
2023-02-14T00:24:36.498Z,-.11
2023-02-14T00:25:08.479Z,-.11
2023-02-14T00:25:40.491Z,-.11
2023-02-14T00:26:12.636Z,-.11
2023-02-14T00:26:44.403Z,-.11
2023-02-14T00:27:16.490Z,-.11
2023-02-14T00:27:48.274Z,0
2023-02-14T00:28:20.469Z,0
2023-02-14T00:28:52.443Z,0
2023-02-14T00:29:24.352Z,0
2023-02-14T00:29:56.236Z,0
2023-02-14T00:30:28.454Z,0
2023-02-14T00:31:00.721Z,0
2023-02-14T00:31:32.118Z,0
2023-02-14T00:32:04.148Z,-.11
2023-02-14T00:32:36.177Z,-.11
2023-02-14T00:33:08.159Z,0
2023-02-14T00:33:40.202Z,0
2023-02-14T00:34:12.016Z,0
2023-02-14T00:34:44.013Z,0
2023-02-14T00:35:16.047Z,0
2023-02-14T00:35:47.945Z,0
2023-02-14T00:36:19.954Z,0
2023-02-14T00:36:51.935Z,0
2023-02-14T00:37:24.042Z,0
2023-02-14T00:37:55.844Z,0
2023-02-14T00:38:27.764Z,0
2023-02-14T00:38:59.834Z,-.11
2023-02-14T00:39:31.887Z,-.11
2023-02-14T00:40:03.696Z,-.11
2023-02-14T00:40:35.943Z,-.11
2023-02-14T00:41:07.780Z,-.11
2023-02-14T00:41:39.871Z,-.11
2023-02-14T00:42:11.725Z,-.11
2023-02-14T00:42:43.693Z,-.11
2023-02-14T00:43:15.717Z,-.11
2023-02-14T00:43:47.744Z,-.11
2023-02-14T00:44:19.718Z,-.11
2023-02-14T00:44:51.618Z,-.11
2023-02-14T00:45:24.989Z,-.11
2023-02-14T00:45:55.713Z,-.11
2023-02-14T00:46:27.581Z,-.11
2023-02-14T00:46:59.531Z,-.11
2023-02-14T00:47:31.520Z,-.11
2023-02-14T00:48:03.568Z,-.11
2023-02-14T00:48:35.399Z,-.11
2023-02-14T00:49:07.482Z,-.11
2023-02-14T00:49:39.428Z,-.11
2023-02-14T00:50:11.539Z,-.11
2023-02-14T00:50:43.282Z,-.11
2023-02-14T00:51:15.342Z,-.11
2023-02-14T00:51:47.406Z,-.11
2023-02-14T00:52:19.208Z,-.11
2023-02-14T00:52:51.348Z,-.11
2023-02-14T00:53:23.247Z,-.11
2023-02-14T00:53:55.297Z,-.11
2023-02-14T00:54:27.045Z,-.22
2023-02-14T00:54:59.187Z,-.22
2023-02-14T00:55:31.327Z,-.22
2023-02-14T00:56:03.440Z,-.22
2023-02-14T00:56:35.218Z,-.22
2023-02-14T00:57:07.145Z,-.22
2023-02-14T00:57:40.003Z,-.22
2023-02-14T00:58:11.212Z,-.22
2023-02-14T00:58:43.945Z,-.22
2023-02-14T00:59:15.068Z,-.27
2023-02-14T00:59:48.234Z,-.27
2023-02-14T01:00:19.591Z,-.27
2023-02-14T01:00:57.942Z,-.27
2023-02-14T01:01:22.952Z,-.27
2023-02-14T01:01:54.903Z,-.27
2023-02-14T01:02:26.958Z,-.27
2023-02-14T01:02:58.717Z,-.27
2023-02-14T01:03:30.901Z,-.27
2023-02-14T01:04:02.845Z,-.27
2023-02-14T01:04:34.821Z,-.27
2023-02-14T01:05:06.661Z,-.27
2023-02-14T01:05:38.681Z,-.27
2023-02-14T01:06:10.878Z,-.27
2023-02-14T01:06:43.452Z,-.27
2023-02-14T01:07:14.544Z,-.27
2023-02-14T01:07:46.654Z,-.27
2023-02-14T01:08:18.677Z,-.27
2023-02-14T01:08:50.776Z,-.27
2023-02-14T01:09:22.498Z,-.27
2023-02-14T01:09:54.529Z,-.27
2023-02-14T01:10:26.592Z,-.27
2023-02-14T01:10:58.903Z,-.27
2023-02-14T01:11:30.593Z,-.27
2023-02-14T01:12:02.507Z,-.27
2023-02-14T01:12:34.482Z,-.27
2023-02-14T01:13:06.501Z,-.38
2023-02-14T01:13:38.338Z,-.38
2023-02-14T01:14:10.812Z,-.38
2023-02-14T01:14:42.377Z,-.38
2023-02-14T01:15:14.578Z,-.38
2023-02-14T01:15:46.322Z,-.38
2023-02-14T01:16:18.376Z,-.38
2023-02-14T01:16:50.546Z,-.38
2023-02-14T01:17:22.279Z,-.38
2023-02-14T01:17:54.195Z,-.38
2023-02-14T01:18:26.184Z,-.38
2023-02-14T01:18:58.208Z,-.38
2023-02-14T01:19:30.344Z,-.38
2023-02-14T01:20:02.263Z,-.38
2023-02-14T01:20:34.094Z,-.38
2023-02-14T01:21:06.232Z,-.38
2023-02-14T01:21:38.154Z,-.38
2023-02-14T01:22:10.174Z,-.38
2023-02-14T01:22:42.032Z,-.38
2023-02-14T01:23:14.033Z,-.50
2023-02-14T01:23:46.296Z,-.50
2023-02-14T01:24:17.947Z,-.50
2023-02-14T01:24:49.870Z,-.50
2023-02-14T01:25:21.940Z,-.50
2023-02-14T01:25:54.791Z,-.50
2023-02-14T01:26:25.817Z,-.50
2023-02-14T01:26:57.971Z,-.50
2023-02-14T01:27:29.872Z,-.50
2023-02-14T01:28:01.702Z,-.61
2023-02-14T01:28:33.728Z,-.61
2023-02-14T01:29:05.777Z,-.61
2023-02-14T01:29:37.776Z,-.61
2023-02-14T01:30:10.284Z,-.61
2023-02-14T01:30:41.716Z,-.61
2023-02-14T01:31:13.762Z,-.61
2023-02-14T01:31:45.787Z,-.61
2023-02-14T01:32:17.667Z,-.72
2023-02-14T01:32:49.580Z,-.72
2023-02-14T01:33:21.653Z,-.72
2023-02-14T01:33:53.655Z,-.72
2023-02-14T01:34:25.482Z,-.72
2023-02-14T01:34:57.502Z,-.72
2023-02-14T01:35:29.503Z,-.72
2023-02-14T01:36:01.564Z,-.72
2023-02-14T01:36:33.409Z,-.72
2023-02-14T01:37:05.401Z,-.72
2023-02-14T01:37:37.446Z,-.72
2023-02-14T01:38:09.443Z,-.72
2023-02-14T01:38:41.391Z,-.72
2023-02-14T01:39:13.307Z,-.72
2023-02-14T01:39:45.363Z,-.72
2023-02-14T01:40:17.509Z,-.72
2023-02-14T01:40:49.142Z,-.72
2023-02-14T01:41:21.271Z,-.72
2023-02-14T01:41:53.266Z,-.72
2023-02-14T01:42:25.308Z,-.72
2023-02-14T01:42:57.135Z,-.72
2023-02-14T01:43:29.115Z,-.72
2023-02-14T01:44:01.368Z,-.77
2023-02-14T01:44:33.027Z,-.77
2023-02-14T01:45:05.627Z,-.77
2023-02-14T01:45:37.133Z,-.77
2023-02-14T01:46:09.144Z,-.77
2023-02-14T01:46:41.057Z,-.77
2023-02-14T01:47:13.019Z,-.77
2023-02-14T01:47:44.998Z,-.77
2023-02-14T01:48:17.037Z,-.77
2023-02-14T01:48:48.888Z,-.77
2023-02-14T01:49:20.936Z,-.77
2023-02-14T01:49:52.869Z,-.77
2023-02-14T01:50:24.885Z,-.77
2023-02-14T01:50:57.106Z,-.77
2023-02-14T01:51:28.762Z,-.88
2023-02-14T01:52:03.636Z,-.88
2023-02-14T01:52:32.829Z,-.88
2023-02-14T01:53:04.629Z,-.88
2023-02-14T01:53:36.731Z,-.88
2023-02-14T01:54:08.750Z,-.88
2023-02-14T01:54:40.925Z,-.88
2023-02-14T01:55:12.609Z,-.88
2023-02-14T01:55:44.651Z,-.88
2023-02-14T01:56:16.665Z,-.88
2023-02-14T01:56:48.714Z,-.88
2023-02-14T01:57:20.635Z,-.88
2023-02-14T01:57:52.530Z,-.88
2023-02-14T01:58:24.545Z,-.88
2023-02-14T01:58:56.638Z,-.88
2023-02-14T01:59:28.496Z,-.88
2023-02-14T02:00:01.250Z,-.88
2023-02-14T02:00:32.485Z,-.88
2023-02-14T02:01:04.695Z,-.88
2023-02-14T02:01:36.511Z,-.88
2023-02-14T02:02:08.503Z,-.88
2023-02-14T02:02:40.564Z,-.88
2023-02-14T02:03:12.465Z,-.88
2023-02-14T02:03:44.252Z,-.88
2023-02-14T02:04:16.318Z,-.88
2023-02-14T02:04:48.245Z,-.88
2023-02-14T02:05:20.453Z,-.88
2023-02-14T02:05:52.189Z,-.88
2023-02-14T02:06:24.233Z,-.88
2023-02-14T02:06:56.248Z,-.88
2023-02-14T02:07:27.999Z,-.88
2023-02-14T02:08:00.041Z,-.88
2023-02-14T02:08:32.134Z,-.88
2023-02-14T02:09:04.069Z,-.88
2023-02-14T02:09:36.148Z,-.88
2023-02-14T02:10:07.985Z,-.88
2023-02-14T02:10:40.037Z,-.88
2023-02-14T02:11:11.970Z,-.88
2023-02-14T02:11:44.362Z,-.88
2023-02-14T02:12:15.909Z,-.88
2023-02-14T02:12:47.924Z,-.88
2023-02-14T02:13:19.954Z,-.88
2023-02-14T02:13:51.753Z,-.88
2023-02-14T02:14:23.800Z,-.88
2023-02-14T02:14:55.842Z,-.88
2023-02-14T02:15:27.996Z,-.88
2023-02-14T02:15:59.707Z,-.88
2023-02-14T02:16:31.743Z,-.88
2023-02-14T02:17:03.734Z,-.88
2023-02-14T02:17:35.791Z,-.88
2023-02-14T02:18:07.640Z,-.88
2023-02-14T02:18:39.574Z,-.88
2023-02-14T02:19:11.679Z,-.88
2023-02-14T02:19:43.772Z,-.88
2023-02-14T02:20:15.590Z,-.88
2023-02-14T02:20:47.628Z,-.88
2023-02-14T02:21:19.574Z,-.88
2023-02-14T02:21:51.669Z,-.88
2023-02-14T02:22:23.454Z,-.88
2023-02-14T02:22:55.445Z,-.88
2023-02-14T02:23:27.490Z,-.77
2023-02-14T02:23:59.501Z,-.77
2023-02-14T02:24:31.388Z,-.77
2023-02-14T02:25:03.379Z,-.77
2023-02-14T02:25:35.703Z,-.77
2023-02-14T02:26:07.706Z,-.77
2023-02-14T02:26:39.268Z,-.77
2023-02-14T02:27:11.320Z,-.77
2023-02-14T02:27:43.314Z,-.77
2023-02-14T02:28:15.404Z,-.77
2023-02-14T02:28:47.156Z,-.77
2023-02-14T02:29:19.217Z,-.77
2023-02-14T02:29:51.351Z,-.77
2023-02-14T02:30:23.448Z,-.77
2023-02-14T02:30:55.290Z,-.77
2023-02-14T02:31:27.267Z,-.77
2023-02-14T02:31:59.291Z,-.77
2023-02-14T02:32:31.261Z,-.77
2023-02-14T02:33:03.075Z,-.77
2023-02-14T02:33:35.674Z,-.77
2023-02-14T02:34:07.176Z,-.77
2023-02-14T02:34:39.105Z,-.77
2023-02-14T02:35:11.045Z,-.77
2023-02-14T02:35:43.045Z,-.77
2023-02-14T02:36:15.093Z,-.77
2023-02-14T02:36:46.816Z,-.77
2023-02-14T02:37:18.849Z,-.77
2023-02-14T02:37:51.000Z,-.77
2023-02-14T02:38:22.936Z,-.77
2023-02-14T02:38:54.848Z,-.77
2023-02-14T02:39:27.624Z,-.77
2023-02-14T02:39:59.728Z,-.77
2023-02-14T02:40:31.741Z,-.77
2023-02-14T02:41:02.630Z,-.77
2023-02-14T02:41:36.031Z,-.77
2023-02-14T02:42:06.845Z,-.77
2023-02-14T02:42:39.630Z,-.77
2023-02-14T02:43:10.597Z,-.77
2023-02-14T02:43:43.633Z,-.77
2023-02-14T02:44:14.684Z,-.77
2023-02-14T02:44:47.560Z,-.77
2023-02-14T02:45:18.625Z,-.77
2023-02-14T02:45:51.668Z,-.77
2023-02-14T02:46:22.677Z,-.77
2023-02-14T02:46:55.457Z,-.77
2023-02-14T02:47:26.338Z,-.77
2023-02-14T02:48:00.466Z,-.77
2023-02-14T02:48:30.583Z,-.77
2023-02-14T02:49:03.484Z,-.77
2023-02-14T02:49:34.232Z,-.77
2023-02-14T02:50:07.410Z,-.77
2023-02-14T02:50:38.310Z,-.88
2023-02-14T02:51:11.448Z,-.88
2023-02-14T02:51:42.238Z,-.88
2023-02-14T02:52:15.204Z,-.88
2023-02-14T02:52:46.252Z,-.88
2023-02-14T02:53:19.216Z,-.88
2023-02-14T02:53:50.141Z,-.88
2023-02-14T02:54:23.036Z,-.88
2023-02-14T02:54:54.464Z,-1.00
2023-02-14T02:55:27.490Z,-1.00
2023-02-14T02:55:58.437Z,-1.00
2023-02-14T02:56:31.075Z,-1.00
2023-02-14T02:57:02.113Z,-1.00
2023-02-14T02:57:34.856Z,-1.00
2023-02-14T02:58:07.012Z,-1.00
2023-02-14T02:58:38.983Z,-1.00
2023-02-14T02:59:10.027Z,-1.00
2023-02-14T02:59:42.717Z,-1.00
2023-02-14T03:00:14.800Z,-1.00
2023-02-14T03:00:46.773Z,-1.00
2023-02-14T03:01:17.982Z,-1.11
2023-02-14T03:01:50.846Z,-1.11
2023-02-14T03:02:21.838Z,-1.11
2023-02-14T03:02:54.778Z,-1.11
2023-02-14T03:03:25.872Z,-1.11
2023-02-14T03:03:58.577Z,-1.11
2023-02-14T03:04:29.738Z,-1.11
2023-02-14T03:05:02.768Z,-1.11
2023-02-14T03:05:34.396Z,-1.11
2023-02-14T03:06:06.622Z,-1.11
2023-02-14T03:06:37.656Z,-1.11
2023-02-14T03:07:10.708Z,-1.22
2023-02-14T03:07:41.826Z,-1.22
2023-02-14T03:08:14.479Z,-1.22
2023-02-14T03:08:45.567Z,-1.22
2023-02-14T03:09:18.422Z,-1.22
2023-02-14T03:09:49.620Z,-1.22
2023-02-14T03:10:22.361Z,-1.22
2023-02-14T03:10:53.437Z,-1.22
2023-02-14T03:11:26.345Z,-1.22
2023-02-14T03:11:57.521Z,-1.22
2023-02-14T03:12:30.590Z,-1.22
2023-02-14T03:13:01.462Z,-1.22
2023-02-14T03:13:34.997Z,-1.22
2023-02-14T03:14:05.449Z,-1.27
2023-02-14T03:14:38.230Z,-1.27
2023-02-14T03:15:09.508Z,-1.27
2023-02-14T03:15:42.619Z,-1.27
2023-02-14T03:16:13.261Z,-1.27
2023-02-14T03:16:46.278Z,-1.27
2023-02-14T03:17:17.192Z,-1.27
2023-02-14T03:17:51.464Z,-1.38
2023-02-14T03:18:21.253Z,-1.38
2023-02-14T03:18:54.360Z,-1.38
2023-02-14T03:19:25.094Z,-1.38
2023-02-14T03:19:58.335Z,-1.38
2023-02-14T03:20:29.222Z,-1.38
2023-02-14T03:21:02.202Z,-1.38
2023-02-14T03:21:33.005Z,-1.38
2023-02-14T03:22:06.088Z,-1.38
2023-02-14T03:22:36.864Z,-1.38
2023-02-14T03:23:09.876Z,-1.38
2023-02-14T03:23:41.063Z,-1.38
2023-02-14T03:24:13.927Z,-1.38
2023-02-14T03:24:44.797Z,-1.38
2023-02-14T03:25:17.737Z,-1.38
2023-02-14T03:25:48.861Z,-1.38
2023-02-14T03:26:21.862Z,-1.38
2023-02-14T03:26:52.762Z,-1.38
2023-02-14T03:27:25.668Z,-1.38
2023-02-14T03:27:56.757Z,-1.38
2023-02-14T03:28:29.787Z,-1.38
2023-02-14T03:29:00.793Z,-1.38
2023-02-14T03:29:33.563Z,-1.38
2023-02-14T03:30:05.249Z,-1.50
2023-02-14T03:30:37.632Z,-1.50
2023-02-14T03:31:08.690Z,-1.50
2023-02-14T03:31:41.791Z,-1.50
2023-02-14T03:32:12.766Z,-1.50
2023-02-14T03:32:45.630Z,-1.50
2023-02-14T03:33:16.480Z,-1.50
2023-02-14T03:33:49.489Z,-1.50
2023-02-14T03:34:20.613Z,-1.50
2023-02-14T03:34:53.491Z,-1.50
2023-02-14T03:35:24.399Z,-1.50
2023-02-14T03:35:57.315Z,-1.50
2023-02-14T03:36:28.436Z,-1.50
2023-02-14T03:37:01.446Z,-1.50
2023-02-14T03:37:32.273Z,-1.50
2023-02-14T03:38:06.052Z,-1.50
2023-02-14T03:38:36.365Z,-1.50
2023-02-14T03:39:09.269Z,-1.50
2023-02-14T03:39:40.326Z,-1.50
2023-02-14T03:40:13.204Z,-1.50
2023-02-14T03:40:44.236Z,-1.50
2023-02-14T03:41:17.062Z,-1.50
2023-02-14T03:41:48.157Z,-1.50
2023-02-14T03:42:21.155Z,-1.50
2023-02-14T03:42:52.178Z,-1.50
2023-02-14T03:43:25.372Z,-1.50
2023-02-14T03:43:56.045Z,-1.50
2023-02-14T03:44:28.962Z,-1.50
2023-02-14T03:45:00.184Z,-1.50
2023-02-14T03:45:33.070Z,-1.50
2023-02-14T03:46:04.032Z,-1.50
2023-02-14T03:46:36.936Z,-1.50
2023-02-14T03:47:08.008Z,-1.61
2023-02-14T03:47:40.888Z,-1.61
2023-02-14T03:48:11.905Z,-1.61
2023-02-14T03:48:46.241Z,-1.61
2023-02-14T03:49:16.313Z,-1.61
2023-02-14T03:49:48.727Z,-1.61
2023-02-14T03:50:19.779Z,-1.61
2023-02-14T03:50:52.739Z,-1.61
2023-02-14T03:51:23.841Z,-1.61
2023-02-14T03:51:56.589Z,-1.61
2023-02-14T03:52:27.913Z,-1.61
2023-02-14T03:53:00.827Z,-1.61
2023-02-14T03:53:31.808Z,-1.61
2023-02-14T03:54:05.025Z,-1.61
2023-02-14T03:54:36.047Z,-1.61
2023-02-14T03:55:08.734Z,-1.61
2023-02-14T03:55:39.733Z,-1.72
2023-02-14T03:56:12.674Z,-1.72
2023-02-14T03:56:43.620Z,-1.72
2023-02-14T03:57:16.534Z,-1.72
2023-02-14T03:57:47.632Z,-1.72
2023-02-14T03:58:20.448Z,-1.72
2023-02-14T03:58:51.483Z,-1.72
2023-02-14T03:59:24.376Z,-1.72
2023-02-14T03:59:55.490Z,-1.72
2023-02-14T04:00:28.542Z,-1.72
2023-02-14T04:00:59.777Z,-1.72
2023-02-14T04:01:32.480Z,-1.72
2023-02-14T04:02:03.208Z,-1.72
2023-02-14T04:02:36.145Z,-1.72
2023-02-14T04:03:07.371Z,-1.72
2023-02-14T04:03:40.456Z,-1.72
2023-02-14T04:04:11.287Z,-1.72
2023-02-14T04:04:44.041Z,-1.72
2023-02-14T04:05:15.209Z,-1.72
2023-02-14T04:05:48.107Z,-1.72
2023-02-14T04:06:19.084Z,-1.72
2023-02-14T04:06:51.984Z,-1.72
2023-02-14T04:07:23.099Z,-1.72
2023-02-14T04:07:55.998Z,-1.72
2023-02-14T04:08:27.017Z,-1.72
2023-02-14T04:08:59.997Z,-1.72
2023-02-14T04:09:31.055Z,-1.72
2023-02-14T04:10:04.027Z,-1.77
2023-02-14T04:10:34.863Z,-1.77
2023-02-14T04:11:07.881Z,-1.77
2023-02-14T04:11:38.987Z,-1.77
2023-02-14T04:12:11.969Z,-1.77
2023-02-14T04:12:42.799Z,-1.77
2023-02-14T04:13:15.723Z,-1.77
2023-02-14T04:13:46.849Z,-1.77
2023-02-14T04:14:19.777Z,-1.77
2023-02-14T04:14:50.787Z,-1.77
2023-02-14T04:15:23.764Z,-1.77
2023-02-14T04:15:54.725Z,-1.77
2023-02-14T04:16:27.708Z,-1.77
2023-02-14T04:16:58.629Z,-1.77
2023-02-14T04:17:31.507Z,-1.77
2023-02-14T04:18:02.682Z,-1.77
2023-02-14T04:18:35.610Z,-1.77
2023-02-14T04:19:06.514Z,-1.77
2023-02-14T04:19:39.452Z,-1.77
2023-02-14T04:20:10.787Z,-1.77
2023-02-14T04:20:43.497Z,-1.77
2023-02-14T04:21:14.443Z,-1.77
2023-02-14T04:21:47.406Z,-1.77
2023-02-14T04:22:18.474Z,-1.77
2023-02-14T04:22:51.543Z,-1.77
2023-02-14T04:23:22.345Z,-1.77
2023-02-14T04:23:55.283Z,-1.77
2023-02-14T04:24:26.449Z,-1.77
2023-02-14T04:24:59.355Z,-1.77
2023-02-14T04:25:30.435Z,-1.77
2023-02-14T04:26:03.250Z,-1.77
2023-02-14T04:26:34.353Z,-1.77
2023-02-14T04:27:07.253Z,-1.77
2023-02-14T04:27:38.229Z,-1.77
2023-02-14T04:28:11.285Z,-1.77
2023-02-14T04:28:42.320Z,-1.77
2023-02-14T04:29:15.197Z,-1.77
2023-02-14T04:29:46.399Z,-1.77
2023-02-14T04:30:19.213Z,-1.77
2023-02-14T04:30:50.275Z,-1.88
2023-02-14T04:31:23.189Z,-1.88
2023-02-14T04:31:54.166Z,-1.88
2023-02-14T04:32:27.002Z,-1.88
2023-02-14T04:32:58.081Z,-1.88
2023-02-14T04:33:30.926Z,-1.88
2023-02-14T04:34:01.995Z,-1.88
2023-02-14T04:34:34.897Z,-1.88
2023-02-14T04:35:05.992Z,-1.88
2023-02-14T04:35:38.729Z,-1.88
2023-02-14T04:36:09.888Z,-1.88
2023-02-14T04:36:42.880Z,-1.88
2023-02-14T04:37:13.909Z,-1.88
2023-02-14T04:37:46.715Z,-1.88
2023-02-14T04:38:17.816Z,-1.88
2023-02-14T04:38:50.872Z,-1.88
2023-02-14T04:39:21.814Z,-1.88
2023-02-14T04:39:54.660Z,-1.88
2023-02-14T04:40:25.702Z,-1.88
2023-02-14T04:40:59.060Z,-1.88
2023-02-14T04:41:29.773Z,-1.88
2023-02-14T04:42:02.461Z,-1.88
2023-02-14T04:42:33.603Z,-1.88
2023-02-14T04:43:06.602Z,-1.77
2023-02-14T04:43:37.748Z,-1.77
2023-02-14T04:44:10.512Z,-1.77
2023-02-14T04:44:41.577Z,-1.77
2023-02-14T04:45:14.624Z,-1.77
2023-02-14T04:45:45.632Z,-1.88
2023-02-14T04:46:18.365Z,-1.88
2023-02-14T04:46:49.446Z,-1.88
2023-02-14T04:47:22.961Z,-1.88
2023-02-14T04:47:53.271Z,-1.88
2023-02-14T04:48:26.256Z,-1.88
2023-02-14T04:48:57.370Z,-1.88
2023-02-14T04:49:30.481Z,-1.88
2023-02-14T04:50:01.708Z,-1.88
2023-02-14T04:50:34.129Z,-1.88
2023-02-14T04:51:05.319Z,-1.88
2023-02-14T04:51:38.230Z,-2.00
2023-02-14T04:52:09.165Z,-2.00
2023-02-14T04:52:42.082Z,-2.00
2023-02-14T04:53:13.203Z,-2.00
2023-02-14T04:53:46.248Z,-2.00
2023-02-14T04:54:17.335Z,-2.00
2023-02-14T04:54:50.070Z,-2.00
2023-02-14T04:55:21.191Z,-2.00
2023-02-14T04:55:54.068Z,-2.00
2023-02-14T04:56:25.007Z,-2.00
2023-02-14T04:56:57.900Z,-2.00
2023-02-14T04:57:29.121Z,-2.00
2023-02-14T04:58:01.979Z,-2.00
2023-02-14T04:58:32.905Z,-2.00
2023-02-14T04:59:05.784Z,-2.00
2023-02-14T04:59:37.016Z,-2.00
2023-02-14T05:00:10.973Z,-2.00
2023-02-14T05:00:40.969Z,-2.00
2023-02-14T05:01:14.644Z,-2.00
2023-02-14T05:01:44.954Z,-2.00
2023-02-14T05:02:17.716Z,-2.00
2023-02-14T05:02:48.733Z,-2.00
2023-02-14T05:03:21.685Z,-2.00
2023-02-14T05:03:52.770Z,-2.11
2023-02-14T05:04:25.816Z,-2.11
2023-02-14T05:04:56.663Z,-2.11
2023-02-14T05:05:29.615Z,-2.11
2023-02-14T05:06:00.760Z,-2.11
2023-02-14T05:06:33.510Z,-2.11
2023-02-14T05:07:04.542Z,-2.11
2023-02-14T05:07:37.532Z,-2.11
2023-02-14T05:08:08.615Z,-2.11
2023-02-14T05:08:41.470Z,-2.11
2023-02-14T05:09:12.473Z,-2.11
2023-02-14T05:09:45.362Z,-2.11
2023-02-14T05:10:16.506Z,-2.11
2023-02-14T05:10:49.450Z,-2.11
2023-02-14T05:11:20.472Z,-2.11
2023-02-14T05:11:53.298Z,-2.11
2023-02-14T05:12:24.419Z,-2.11
2023-02-14T05:12:57.172Z,-2.11
2023-02-14T05:13:28.466Z,-2.11
2023-02-14T05:14:01.437Z,-2.11
2023-02-14T05:14:32.344Z,-2.11
2023-02-14T05:15:05.581Z,-2.11
2023-02-14T05:15:38.388Z,-2.00
2023-02-14T05:16:09.201Z,-2.00
2023-02-14T05:16:40.992Z,-2.00
2023-02-14T05:17:12.973Z,-2.00
2023-02-14T05:17:44.024Z,-2.00
2023-02-14T05:18:17.143Z,-2.00
2023-02-14T05:18:48.268Z,-2.00
2023-02-14T05:19:21.077Z,-2.00
2023-02-14T05:19:52.007Z,-2.00
2023-02-14T05:20:24.928Z,-2.00
2023-02-14T05:20:56.066Z,-2.00
2023-02-14T05:21:28.758Z,-2.00
2023-02-14T05:21:59.928Z,-2.00
2023-02-14T05:22:32.859Z,-2.00
2023-02-14T05:23:04.010Z,-2.00
2023-02-14T05:23:36.843Z,-2.00
2023-02-14T05:24:07.872Z,-2.00
2023-02-14T05:24:40.924Z,-2.00
2023-02-14T05:25:11.935Z,-2.00
2023-02-14T05:25:44.786Z,-2.00
2023-02-14T05:26:16.086Z,-2.00
2023-02-14T05:26:48.711Z,-2.00
2023-02-14T05:27:19.826Z,-2.00
2023-02-14T05:27:52.596Z,-2.00
2023-02-14T05:28:23.682Z,-2.00
2023-02-14T05:28:56.830Z,-2.00
2023-02-14T05:29:27.720Z,-2.00
2023-02-14T05:30:01.214Z,-2.00
2023-02-14T05:30:31.721Z,-2.00
2023-02-14T05:31:04.717Z,-2.00
2023-02-14T05:31:35.813Z,-2.00
2023-02-14T05:32:08.394Z,-2.00
2023-02-14T05:32:39.492Z,-2.00
2023-02-14T05:33:12.512Z,-2.00
2023-02-14T05:33:43.559Z,-2.00
2023-02-14T05:34:16.287Z,-2.00
2023-02-14T05:34:47.467Z,-2.00
2023-02-14T05:35:20.503Z,-2.00
2023-02-14T05:35:51.469Z,-2.00
2023-02-14T05:36:24.305Z,-2.11
2023-02-14T05:36:55.343Z,-2.11
2023-02-14T05:37:28.197Z,-2.11
2023-02-14T05:37:59.351Z,-2.11
2023-02-14T05:38:32.240Z,-2.11
2023-02-14T05:39:03.215Z,-2.11
2023-02-14T05:39:36.161Z,-2.11
2023-02-14T05:40:07.713Z,-2.11
2023-02-14T05:40:40.034Z,-2.11
2023-02-14T05:41:11.201Z,-2.11
2023-02-14T05:41:44.157Z,-2.11
2023-02-14T05:42:15.205Z,-2.11
2023-02-14T05:42:47.948Z,-2.11
2023-02-14T05:43:19.072Z,-2.22
2023-02-14T05:43:51.959Z,-2.22
2023-02-14T05:44:22.860Z,-2.22
2023-02-14T05:44:55.847Z,-2.22
2023-02-14T05:45:27.124Z,-2.22
2023-02-14T05:46:00.095Z,-2.22
2023-02-14T05:46:30.963Z,-2.22
2023-02-14T05:47:03.736Z,-2.22
2023-02-14T05:47:35.068Z,-2.22
2023-02-14T05:48:07.969Z,-2.22
2023-02-14T05:48:38.738Z,-2.22
2023-02-14T05:49:11.711Z,-2.22
2023-02-14T05:49:42.966Z,-2.22
2023-02-14T05:50:15.776Z,-2.22
2023-02-14T05:50:46.676Z,-2.22
2023-02-14T05:51:19.624Z,-2.22
2023-02-14T05:51:50.860Z,-2.22
2023-02-14T05:52:23.596Z,-2.22
2023-02-14T05:52:54.556Z,-2.22
2023-02-14T05:53:27.623Z,-2.22
2023-02-14T05:53:58.637Z,-2.22
2023-02-14T05:54:31.588Z,-2.22
2023-02-14T05:55:02.569Z,-2.22
2023-02-14T05:55:35.495Z,-2.22
2023-02-14T05:56:06.619Z,-2.22
2023-02-14T05:56:39.639Z,-2.22
2023-02-14T05:57:10.477Z,-2.22
2023-02-14T05:57:43.325Z,-2.22
2023-02-14T05:58:14.470Z,-2.27
2023-02-14T05:58:47.534Z,-2.27
2023-02-14T05:59:18.443Z,-2.27
2023-02-14T05:59:51.299Z,-2.27
2023-02-14T06:00:22.592Z,-2.27
2023-02-14T06:00:55.540Z,-2.27
2023-02-14T06:01:26.328Z,-2.27
2023-02-14T06:01:59.465Z,-2.27
2023-02-14T06:02:30.570Z,-2.27
2023-02-14T06:03:03.179Z,-2.27
2023-02-14T06:03:34.216Z,-2.22
2023-02-14T06:04:07.274Z,-2.22
2023-02-14T06:04:38.289Z,-2.22
2023-02-14T06:05:11.580Z,-2.22
2023-02-14T06:05:42.092Z,-2.22
2023-02-14T06:06:15.599Z,-2.22
2023-02-14T06:06:46.390Z,-2.22
2023-02-14T06:07:19.087Z,-2.22
2023-02-14T06:07:50.049Z,-2.22
2023-02-14T06:08:23.259Z,-2.22
2023-02-14T06:08:54.089Z,-2.22
2023-02-14T06:09:27.854Z,-2.22
2023-02-14T06:09:57.946Z,-2.22
2023-02-14T06:10:31.059Z,-2.22
2023-02-14T06:11:02.316Z,-2.22
2023-02-14T06:11:34.777Z,-2.22
2023-02-14T06:12:05.926Z,-2.22
2023-02-14T06:12:39.084Z,-2.22
2023-02-14T06:13:10.408Z,-2.22
2023-02-14T06:13:43.094Z,-2.22
2023-02-14T06:14:13.702Z,-2.27
2023-02-14T06:14:46.715Z,-2.27
2023-02-14T06:15:18.004Z,-2.27
2023-02-14T06:15:50.634Z,-2.27
2023-02-14T06:16:21.673Z,-2.27
2023-02-14T06:16:54.688Z,-2.27
2023-02-14T06:17:25.768Z,-2.27
2023-02-14T06:17:58.441Z,-2.27
2023-02-14T06:18:29.585Z,-2.27
2023-02-14T06:19:02.585Z,-2.27
2023-02-14T06:19:33.706Z,-2.27
2023-02-14T06:20:06.466Z,-2.27
2023-02-14T06:20:37.523Z,-2.27
2023-02-14T06:21:10.625Z,-2.27
2023-02-14T06:21:41.602Z,-2.27
2023-02-14T06:22:14.344Z,-2.27
2023-02-14T06:22:45.481Z,-2.27
2023-02-14T06:23:18.514Z,-2.27
2023-02-14T06:23:49.322Z,-2.27
2023-02-14T06:24:22.241Z,-2.27
2023-02-14T06:24:53.394Z,-2.27
2023-02-14T06:25:26.390Z,-2.27
2023-02-14T06:25:57.223Z,-2.27
2023-02-14T06:26:30.240Z,-2.27
2023-02-14T06:27:01.426Z,-2.27
2023-02-14T06:27:34.290Z,-2.27
2023-02-14T06:28:05.201Z,-2.27
2023-02-14T06:28:38.068Z,-2.27
2023-02-14T06:29:09.146Z,-2.27
2023-02-14T06:29:42.412Z,-2.27
2023-02-14T06:30:13.596Z,-2.27
2023-02-14T06:30:46.138Z,-2.27
2023-02-14T06:31:17.253Z,-2.27
2023-02-14T06:31:50.262Z,-2.27
2023-02-14T06:32:21.441Z,-2.27
2023-02-14T06:32:53.917Z,-2.27
2023-02-14T06:33:25.064Z,-2.27
2023-02-14T06:33:58.089Z,-2.27
2023-02-14T06:34:28.864Z,-2.27
2023-02-14T06:35:02.001Z,-2.27
2023-02-14T06:35:33.039Z,-2.27
2023-02-14T06:36:05.909Z,-2.27
2023-02-14T06:36:36.838Z,-2.27
2023-02-14T06:37:09.746Z,-2.27
2023-02-14T06:37:41.063Z,-2.27
2023-02-14T06:38:13.872Z,-2.27
2023-02-14T06:38:44.813Z,-2.27
2023-02-14T06:39:17.671Z,-2.27
2023-02-14T06:39:48.745Z,-2.27
2023-02-14T06:40:21.726Z,-2.27
2023-02-14T06:40:52.600Z,-2.27
2023-02-14T06:41:25.589Z,-2.27
2023-02-14T06:41:56.731Z,-2.27
2023-02-14T06:42:29.659Z,-2.27
2023-02-14T06:43:00.683Z,-2.27
2023-02-14T06:43:33.493Z,-2.27
2023-02-14T06:44:04.696Z,-2.27
2023-02-14T06:44:37.644Z,-2.27
2023-02-14T06:45:08.728Z,-2.27
2023-02-14T06:45:41.516Z,-2.27
2023-02-14T06:46:12.567Z,-2.27
2023-02-14T06:46:45.291Z,-2.27
2023-02-14T06:47:16.390Z,-2.27
2023-02-14T06:47:49.317Z,-2.27
2023-02-14T06:48:20.591Z,-2.27
2023-02-14T06:48:53.179Z,-2.27
2023-02-14T06:49:24.365Z,-2.27
2023-02-14T06:49:57.311Z,-2.27
2023-02-14T06:50:28.350Z,-2.27
2023-02-14T06:51:01.502Z,-2.27
2023-02-14T06:51:32.275Z,-2.27
2023-02-14T06:52:05.262Z,-2.38
2023-02-14T06:52:36.237Z,-2.38
2023-02-14T06:53:09.149Z,-2.38
2023-02-14T06:53:40.132Z,-2.38
2023-02-14T06:54:13.083Z,-2.38
2023-02-14T06:54:44.188Z,-2.38
2023-02-14T06:55:17.031Z,-2.38
2023-02-14T06:55:48.145Z,-2.38
2023-02-14T06:56:21.299Z,-2.38
2023-02-14T06:56:52.121Z,-2.38
2023-02-14T06:57:24.803Z,-2.38
2023-02-14T06:57:55.970Z,-2.38
2023-02-14T06:58:28.996Z,-2.38